Airfield :
LOGIN :

Register | Disclaimer

   EN    FR    IT 

 










Legend :    VFR   Marginal VFR   IFR   Intensive IFR   Very Intensive IFR
Visi :
Ceiling :
>= 8 km
>= 3000ft
5 to 8 km
1000 to 3000 ft
1500m to 5 km
500 to 1000 ft
800 to 1500m
200 to 500 ft
< 800m
< 200 ft
Symbols :   Thunderstorms  Fog  Heavy snow  Heavy precipitations  Wind > 20 kt
SIGMETs :     Misc.  Thunderstorms  Icing  Turbulence  Mountain Waves  Volcanic Ashes







- Airport Elevation : 1234 ft
- IATA code : LUX


ELLX - Luxembourg Findel

CURRENT METAR :
  • 191620Z VRB07KT 9999 -SHRA FEW025CB SCT060 13/09 Q1019 NOSIG

EXPIRED METARs :
  • 191550Z 32008KT 9999 -SHRA FEW025CB SCT060 14/09 Q1019 NOSIG
  • 191520Z 31009KT 270V340 9999 FEW025CB 14/08 Q1019 NOSIG
  • 191450Z 32009KT 290V350 9999 FEW025CB 14/08 Q1019 NOSIG
  • 191420Z 31007KT 9999 FEW025CB SCT060 15/08 Q1018 NOSIG
  • 191350Z 30009KT 9999 FEW022CB SCT060 14/08 Q1019 NOSIG

TAF TAF ELLX
Valid from the 19 at 12:00 until the 20 at 18:00 UTC


191100Z 1912/2018 30006KT 9999 SCT015TCU BKN020
PROB40
TEMPO 1912/1917 SHRA SCT015CB
BECMG 1917/1918 SCT015
BECMG 1922/1924 3000 BR
TEMPO 2000/2007 0300 FG VV002
TEMPO 2007/2009 1500 BR
BECMG 2009/2011 9999
ATIS : +352 4798 27300
Met : +352 4798 27010 / 27050
No reported NOTAMs for that airfield.



MET'MAP, your aeronautical weather chart ! - Copyright ORBIFLY December 2007 - Disclaimer

ORBIFLY MET'MAP TEAM :

Programming & Development : Alexandra Zaïnal
Concept & Development : Baudouin d'Aumeries
Co-Development & Prog : Marc-Olivier Méhu
Technical & hardware support : Manuel Goepfert

Contact : metmap@orbifly.com




SOURCES & CREDITS :

   NOAA